Time;durP1;ratioP1;P1;durP2;ratioP2;P2;SDS_P1;SDS_P2;PMS_P1;PMS_P2;Temp;Humidity;BMP_temperature;BMP_pressure;BME280_temperature;BME280_humidity;BME280_pressure;Samples;Min_cycle;Max_cycle;Signal;HPM_P1;HPM_P2
2023/07/06 00:01:11;;;;;;;12.23;9.40;;;12.60;99.90;;;;;;4986512;28;20052;-72
2023/07/06 00:03:38;;;;;;;12.32;9.02;;;12.60;99.90;;;;;;4984751;28;20460;-72
2023/07/06 00:06:08;;;;;;;10.85;9.70;;;12.50;99.90;;;;;;4986711;28;20488;-72
2023/07/06 00:08:34;;;;;;;;;;;12.50;99.90;;;;;;4976163;28;20050;-72
2023/07/06 00:11:00;;;;;;;13.65;9.38;;;12.50;99.90;;;;;;4963234;28;19940;-72
2023/07/06 00:13:26;;;;;;;10.63;9.00;;;12.40;99.90;;;;;;4974289;28;20069;-72
2023/07/06 00:15:52;;;;;;;10.35;9.35;;;12.50;99.90;;;;;;4993531;28;20061;-72
2023/07/06 00:18:22;;;;;;;12.65;9.98;;;12.50;99.90;;;;;;4986192;28;20142;-72
2023/07/06 00:20:49;;;;;;;11.00;9.90;;;12.50;99.90;;;;;;4979988;28;20057;-73
2023/07/06 00:23:16;;;;;;;12.60;9.40;;;12.50;99.90;;;;;;4973684;28;20046;-72
2023/07/06 00:25:41;;;;;;;11.40;9.10;;;12.40;99.90;;;;;;4985802;28;20034;-73
2023/07/06 00:28:14;;;;;;;13.10;10.00;;;12.40;99.90;;;;;;4978354;28;20056;-72
2023/07/06 00:30:52;;;;;;;13.07;10.25;;;12.40;99.90;;;;;;4987883;28;20038;-73
2023/07/06 00:33:19;;;;;;;15.27;11.18;;;12.40;99.90;;;;;;4994473;28;20634;-72
2023/07/06 00:35:46;;;;;;;12.25;10.25;;;12.40;99.90;;;;;;4992786;28;20128;-72
2023/07/06 00:38:15;;;;;;;13.27;11.18;;;12.40;99.90;;;;;;4979670;28;20433;-72
2023/07/06 00:40:52;;;;;;;14.88;10.60;;;12.40;99.90;;;;;;4989821;28;20504;-72
2023/07/06 00:43:23;;;;;;;14.48;12.00;;;12.40;99.90;;;;;;4991457;28;20286;-72
2023/07/06 00:46:10;;;;;;;14.77;11.20;;;12.40;99.90;;;;;;4992760;28;20057;-72
2023/07/06 00:48:44;;;;;;;12.38;11.18;;;12.40;99.90;;;;;;4974741;28;20108;-72
2023/07/06 00:51:16;;;;;;;12.82;10.88;;;12.40;99.90;;;;;;5011707;28;20046;-72
2023/07/06 00:53:46;;;;;;;13.50;11.30;;;12.40;99.90;;;;;;4980139;28;20155;-72
2023/07/06 00:56:16;;;;;;;12.15;10.90;;;12.40;99.90;;;;;;5002484;28;20046;-72
2023/07/06 00:58:48;;;;;;;12.98;11.68;;;12.40;99.90;;;;;;4986641;28;20042;-72
2023/07/06 01:01:21;;;;;;;13.55;11.40;;;12.40;99.90;;;;;;4979125;28;20037;-72
2023/07/06 01:03:52;;;;;;;14.70;12.35;;;12.40;99.90;;;;;;4985050;28;21833;-72
2023/07/06 01:06:41;;;;;;;13.32;11.15;;;12.40;99.90;;;;;;4989568;28;20524;-72
2023/07/06 01:09:07;;;;;;;14.15;12.65;;;12.40;99.90;;;;;;4972413;28;20137;-72
2023/07/06 01:11:38;;;;;;;12.82;10.70;;;12.30;99.90;;;;;;4971757;28;20049;-72
2023/07/06 01:14:04;;;;;;;12.98;11.45;;;12.30;99.90;;;;;;4987960;28;20038;-72
2023/07/06 01:16:42;;;;;;;13.70;11.18;;;12.30;99.90;;;;;;4987184;28;20366;-73
2023/07/06 01:19:23;;;;;;;13.00;11.30;;;12.30;99.90;;;;;;5003970;28;20081;-72
2023/07/06 01:22:22;;;;;;;12.40;10.20;;;12.30;99.90;;;;;;5003778;28;20435;-72
2023/07/06 01:25:20;;;;;;;11.95;10.20;;;12.30;99.90;;;;;;4978154;28;20633;-72
2023/07/06 01:27:58;;;;;;;13.15;11.32;;;12.30;99.90;;;;;;4996777;28;20431;-72
2023/07/06 01:30:51;;;;;;;13.00;10.75;;;12.20;99.90;;;;;;4980258;28;20124;-72
2023/07/06 01:33:37;;;;;;;12.77;10.95;;;12.20;99.90;;;;;;4975918;28;20041;-72
2023/07/06 01:36:28;;;;;;;12.73;10.52;;;12.20;99.90;;;;;;4966354;28;20450;-72
2023/07/06 01:39:21;;;;;;;12.05;9.73;;;12.20;99.90;;;;;;4984461;28;20084;-72
2023/07/06 01:42:01;;;;;;;12.93;10.25;;;12.20;99.90;;;;;;4982639;28;20030;-72
2023/07/06 01:44:28;;;;;;;12.32;9.85;;;12.20;99.90;;;;;;4962619;28;20041;-72
2023/07/06 01:46:54;;;;;;;14.95;10.88;;;12.20;99.90;;;;;;4984600;28;20045;-72
2023/07/06 01:49:21;;;;;;;12.23;10.93;;;12.20;99.90;;;;;;4975901;28;20062;-72
2023/07/06 01:51:59;;;;;;;12.40;11.18;;;12.10;99.90;;;;;;4968408;28;20126;-72
2023/07/06 01:54:39;;;;;;;12.15;10.65;;;12.10;99.90;;;;;;4957600;28;20058;-72
2023/07/06 01:57:25;;;;;;;11.38;9.98;;;12.10;99.90;;;;;;4981279;28;20696;-72
2023/07/06 01:59:55;;;;;;;12.98;11.35;;;12.10;99.90;;;;;;4983380;28;20377;-72
2023/07/06 02:02:22;;;;;;;11.13;9.90;;;12.10;99.90;;;;;;4958935;28;20523;-72
2023/07/06 02:04:49;;;;;;;12.52;10.07;;;12.10;99.90;;;;;;4985291;28;20547;-71
2023/07/06 02:07:20;;;;;;;12.63;10.82;;;12.00;99.90;;;;;;4961659;28;20053;-72
2023/07/06 02:09:47;;;;;;;11.43;10.23;;;12.00;99.90;;;;;;4957872;28;20045;-72
2023/07/06 02:12:14;;;;;;;10.57;9.48;;;12.00;99.90;;;;;;4985387;28;20123;-72
2023/07/06 02:14:41;;;;;;;10.35;9.07;;;12.00;99.90;;;;;;4967204;28;20042;-72
2023/07/06 02:17:07;;;;;;;11.43;9.45;;;12.00;99.90;;;;;;4983039;28;20635;-72
2023/07/06 02:19:35;;;;;;;11.18;9.70;;;12.00;99.90;;;;;;4983275;28;20453;-74
2023/07/06 02:22:04;;;;;;;10.80;9.70;;;12.00;99.90;;;;;;4985512;28;20286;-74
2023/07/06 02:24:34;;;;;;;12.65;10.25;;;12.00;99.90;;;;;;4982849;28;20527;-73
2023/07/06 02:27:03;;;;;;;11.07;9.85;;;12.00;99.90;;;;;;4979201;28;20412;-74
2023/07/06 02:29:29;;;;;;;12.80;10.20;;;12.00;99.90;;;;;;4981116;28;20139;-74
2023/07/06 02:31:55;;;;;;;12.75;10.63;;;12.00;99.90;;;;;;4982876;28;20310;-72
2023/07/06 02:34:27;;;;;;;11.25;10.00;;;11.90;99.90;;;;;;4960302;28;21668;-72
2023/07/06 02:36:54;;;;;;;13.45;10.02;;;11.90;99.90;;;;;;4967979;28;20417;-72
2023/07/06 02:39:23;;;;;;;11.60;9.82;;;12.00;99.90;;;;;;4980683;28;20060;-72
2023/07/06 02:41:53;;;;;;;12.45;11.10;;;12.00;99.90;;;;;;4977409;28;20152;-72
2023/07/06 02:44:20;;;;;;;12.77;10.63;;;12.00;99.90;;;;;;4982166;28;20238;-72
2023/07/06 02:46:46;;;;;;;14.77;10.85;;;12.00;99.90;;;;;;4977441;28;20111;-72
2023/07/06 02:49:21;;;;;;;13.75;11.13;;;12.00;99.90;;;;;;4968279;28;20045;-72
2023/07/06 02:51:47;;;;;;;14.07;11.75;;;12.00;99.90;;;;;;4971790;28;20049;-72
2023/07/06 02:54:17;;;;;;;14.32;11.55;;;12.00;99.90;;;;;;4976782;28;20128;-72
2023/07/06 02:56:43;;;;;;;14.95;11.80;;;12.00;99.90;;;;;;4977809;28;20124;-72
2023/07/06 02:59:09;;;;;;;14.20;12.15;;;11.90;99.90;;;;;;4981442;28;20140;-72
2023/07/06 03:01:36;;;;;;;14.38;11.90;;;12.00;99.90;;;;;;4978893;28;20049;-72
2023/07/06 03:04:09;;;;;;;13.35;11.80;;;12.00;99.90;;;;;;4985563;28;20343;-72
2023/07/06 03:06:35;;;;;;;13.93;12.45;;;12.00;99.90;;;;;;4972580;28;20465;-72
2023/07/06 03:09:01;;;;;;;14.32;12.90;;;12.00;99.90;;;;;;4942484;28;20062;-72
2023/07/06 03:11:36;;;;;;;12.57;11.27;;;12.00;99.90;;;;;;4944900;28;20043;-72
2023/07/06 03:14:04;;;;;;;15.95;12.85;;;12.10;99.90;;;;;;4959471;28;20050;-72
2023/07/06 03:16:53;;;;;;;16.23;12.15;;;12.10;99.90;;;;;;4943196;28;20046;-72
2023/07/06 03:19:20;;;;;;;15.18;13.45;;;12.20;99.90;;;;;;4942662;28;20050;-72
2023/07/06 03:21:46;;;;;;;13.43;12.00;;;12.20;99.90;;;;;;4959158;28;20043;-72
2023/07/06 03:24:12;;;;;;;15.88;12.65;;;12.20;99.90;;;;;;4944168;28;20051;-72
2023/07/06 03:26:40;;;;;;;13.73;12.32;;;12.30;99.90;;;;;;4961173;28;20098;-72
2023/07/06 03:29:08;;;;;;;17.42;13.10;;;12.20;99.90;;;;;;4960503;28;20525;-72
2023/07/06 03:31:34;;;;;;;14.50;12.55;;;12.30;99.90;;;;;;4942195;28;20049;-72
2023/07/06 03:34:00;;;;;;;15.73;12.50;;;12.30;99.90;;;;;;4945312;28;20043;-72
2023/07/06 03:36:26;;;;;;;15.25;12.98;;;12.30;99.90;;;;;;4940894;28;20053;-72
2023/07/06 03:38:52;;;;;;;13.65;12.13;;;12.30;99.90;;;;;;4945093;28;20453;-72
2023/07/06 03:41:19;;;;;;;13.73;12.20;;;12.30;99.90;;;;;;4960755;28;20043;-72
2023/07/06 03:43:45;;;;;;;17.95;13.45;;;12.30;99.90;;;;;;4961190;28;20596;-72
2023/07/06 03:46:12;;;;;;;14.20;12.63;;;12.30;99.90;;;;;;4944260;28;20508;-72
2023/07/06 03:48:44;;;;;;;16.40;13.65;;;12.40;99.90;;;;;;4960087;28;20063;-72
2023/07/06 03:51:11;;;;;;;15.30;11.75;;;12.40;99.90;;;;;;4965149;28;20051;-72
2023/07/06 03:53:36;;;;;;;17.75;12.48;;;12.30;99.90;;;;;;4965301;28;20038;-72
2023/07/06 03:56:04;;;;;;;14.70;12.52;;;12.40;99.90;;;;;;4963666;28;20054;-72
2023/07/06 03:58:30;;;;;;;15.88;13.00;;;12.40;99.90;;;;;;4964371;28;20163;-72
2023/07/06 04:01:01;;;;;;;15.18;13.10;;;12.40;99.90;;;;;;4946231;28;20043;-72
2023/07/06 04:03:32;;;;;;;16.73;13.02;;;12.40;99.90;;;;;;4948653;28;20077;-72
2023/07/06 04:06:01;;;;;;;16.55;13.25;;;12.40;99.90;;;;;;4949640;28;20047;-72
2023/07/06 04:08:30;;;;;;;14.95;12.40;;;12.40;99.90;;;;;;4976407;28;20136;-75
2023/07/06 04:10:56;;;;;;;15.30;12.48;;;12.50;99.90;;;;;;4970499;28;20137;-75
2023/07/06 04:13:22;;;;;;;16.88;13.05;;;12.50;99.90;;;;;;4971311;28;20117;-75
2023/07/06 04:15:49;;;;;;;17.30;13.18;;;12.50;99.90;;;;;;4974718;28;20046;-75
2023/07/06 04:18:17;;;;;;;15.55;12.98;;;12.50;99.90;;;;;;4965885;28;20056;-75
2023/07/06 04:20:44;;;;;;;17.65;13.30;;;12.50;99.90;;;;;;4960379;28;20042;-75
2023/07/06 04:23:09;;;;;;;17.85;13.00;;;12.50;99.90;;;;;;4963563;28;20050;-74
2023/07/06 04:25:36;;;;;;;17.33;13.68;;;12.60;99.90;;;;;;4969846;28;20624;-74
2023/07/06 04:28:05;;;;;;;16.88;13.25;;;12.60;99.90;;;;;;4953539;28;20085;-75
2023/07/06 04:30:36;;;;;;;16.42;12.90;;;12.70;99.90;;;;;;4954472;28;20446;-74
2023/07/06 04:33:10;;;;;;;16.77;13.77;;;12.70;99.90;;;;;;4964445;28;20101;-74
2023/07/06 04:35:36;;;;;;;19.52;14.38;;;12.70;99.90;;;;;;4969502;28;20058;-75
2023/07/06 04:38:03;;;;;;;19.05;14.15;;;12.70;99.90;;;;;;4970578;28;20633;-75
2023/07/06 04:40:29;;;;;;;17.60;13.82;;;12.70;99.90;;;;;;4947397;28;20053;-75
2023/07/06 04:42:55;;;;;;;16.50;14.02;;;12.80;99.90;;;;;;4968074;28;20038;-75
2023/07/06 04:45:27;;;;;;;19.58;15.30;;;12.80;99.90;;;;;;4970555;28;20203;-75
2023/07/06 04:47:57;;;;;;;18.35;14.52;;;12.80;99.90;;;;;;4965874;28;20085;-72
2023/07/06 04:50:23;;;;;;;15.15;12.00;;;12.80;99.90;;;;;;4967580;28;20061;-72
2023/07/06 04:52:53;;;;;;;18.65;13.15;;;12.80;99.90;;;;;;4946848;28;20042;-72
2023/07/06 04:55:22;;;;;;;19.83;15.50;;;12.80;99.90;;;;;;4970628;28;20089;-72
2023/07/06 04:57:54;;;;;;;17.95;15.43;;;12.80;99.90;;;;;;4971896;28;20074;-72
2023/07/06 05:00:24;;;;;;;18.60;14.43;;;12.80;99.90;;;;;;4961718;28;20050;-72
2023/07/06 05:03:09;;;;;;;18.08;14.23;;;12.80;99.90;;;;;;4971590;28;20637;-72
2023/07/06 05:05:36;;;;;;;19.55;13.68;;;12.90;99.90;;;;;;4959264;28;20054;-72
2023/07/06 05:08:02;;;;;;;19.42;14.27;;;12.90;99.90;;;;;;4972909;28;21573;-72
2023/07/06 05:10:28;;;;;;;17.33;13.00;;;12.90;99.90;;;;;;4989697;28;20058;-72
2023/07/06 05:12:57;;;;;;;20.13;14.23;;;12.90;99.90;;;;;;4985495;28;20453;-72
2023/07/06 05:15:24;;;;;;;18.08;13.93;;;12.90;99.90;;;;;;4974212;28;20051;-72
2023/07/06 05:17:50;;;;;;;17.00;13.50;;;13.00;99.90;;;;;;4989695;28;20042;-74
2023/07/06 05:20:16;;;;;;;18.00;13.07;;;13.00;99.90;;;;;;4974731;28;20125;-75
2023/07/06 05:22:48;;;;;;;18.08;13.60;;;13.10;99.90;;;;;;4970527;28;20044;-74
2023/07/06 05:25:18;;;;;;;18.33;13.65;;;13.10;99.90;;;;;;4964124;28;20045;-72
2023/07/06 05:27:44;;;;;;;18.13;13.65;;;13.10;99.90;;;;;;4980394;28;20722;-72
2023/07/06 05:30:10;;;;;;;20.48;14.40;;;13.20;99.90;;;;;;4979213;28;20061;-72
2023/07/06 05:32:36;;;;;;;18.70;12.73;;;13.30;99.90;;;;;;4963596;28;20128;-72
2023/07/06 05:35:03;;;;;;;16.38;13.00;;;13.30;99.90;;;;;;5003494;28;20636;-73
2023/07/06 05:37:28;;;;;;;26.02;14.65;;;13.40;99.90;;;;;;4987518;28;20050;-73
2023/07/06 05:39:54;;;;;;;18.35;13.57;;;13.50;99.90;;;;;;4972140;28;20096;-73
2023/07/06 05:42:20;;;;;;;16.67;12.73;;;13.60;99.90;;;;;;4985380;28;20089;-73
2023/07/06 05:44:46;;;;;;;22.83;13.38;;;13.70;99.90;;;;;;4991146;28;20514;-73
2023/07/06 05:47:13;;;;;;;24.52;13.70;;;13.70;99.90;;;;;;4967686;28;20833;-72
2023/07/06 05:49:38;;;;;;;17.23;13.40;;;13.70;99.90;;;;;;4962378;28;20050;-72
2023/07/06 05:52:05;;;;;;;18.42;14.30;;;13.80;99.90;;;;;;4988050;28;20101;-72
2023/07/06 05:54:32;;;;;;;18.58;12.90;;;13.90;99.90;;;;;;4958741;28;20074;-71
2023/07/06 05:57:02;;;;;;;18.80;14.13;;;14.00;99.90;;;;;;4968671;28;20107;-73
2023/07/06 05:59:30;;;;;;;16.70;13.10;;;14.10;99.90;;;;;;5000372;28;20050;-73
2023/07/06 06:01:59;;;;;;;20.27;13.25;;;14.10;99.90;;;;;;4982420;28;20496;-73
2023/07/06 06:04:26;;;;;;;17.73;12.85;;;14.20;99.90;;;;;;4987460;28;20042;-73
2023/07/06 06:06:56;;;;;;;22.30;13.77;;;14.30;99.90;;;;;;4973414;28;20052;-73
2023/07/06 06:09:25;;;;;;;16.52;12.98;;;14.40;99.90;;;;;;4984388;28;20057;-73
2023/07/06 06:11:52;;;;;;;21.02;12.82;;;14.40;99.90;;;;;;4984067;28;20132;-74
2023/07/06 06:14:18;;;;;;;16.30;12.25;;;14.50;99.90;;;;;;4980553;28;20364;-74
2023/07/06 06:16:44;;;;;;;18.63;13.02;;;14.50;99.90;;;;;;4967252;28;20050;-73
2023/07/06 06:19:10;;;;;;;15.02;12.00;;;14.60;99.90;;;;;;4980696;28;20077;-73
2023/07/06 06:21:36;;;;;;;17.98;12.93;;;14.60;99.90;;;;;;4980550;28;20120;-72
2023/07/06 06:24:03;;;;;;;16.33;12.80;;;14.70;99.90;;;;;;4968317;28;20046;-75
2023/07/06 06:26:29;;;;;;;19.23;12.55;;;14.80;99.90;;;;;;4965293;28;20172;-75
2023/07/06 06:28:57;;;;;;;19.60;13.18;;;14.90;99.90;;;;;;4999519;28;20413;-78
2023/07/06 06:31:24;;;;;;;16.75;12.48;;;14.90;99.90;;;;;;4983431;28;20050;-75
2023/07/06 06:33:50;;;;;;;17.70;11.98;;;15.00;99.90;;;;;;4985119;28;20046;-77
2023/07/06 06:36:17;;;;;;;18.63;12.70;;;15.10;99.90;;;;;;4979119;28;20104;-76
2023/07/06 06:38:43;;;;;;;16.63;11.95;;;15.20;99.90;;;;;;5005258;28;20073;-77
2023/07/06 06:41:10;;;;;;;16.27;12.98;;;15.30;99.90;;;;;;4965362;28;20045;-75
2023/07/06 06:43:45;;;;;;;19.55;13.10;;;15.40;99.90;;;;;;4980430;28;20046;-76
2023/07/06 06:46:13;;;;;;;17.98;11.82;;;15.50;99.90;;;;;;4967485;28;20046;-76
2023/07/06 06:48:39;;;;;;;18.77;12.57;;;15.60;99.90;;;;;;4964540;28;20085;-77
2023/07/06 06:51:07;;;;;;;17.25;11.45;;;15.70;99.90;;;;;;4966031;28;20046;-76
2023/07/06 06:53:39;;;;;;;18.55;12.02;;;15.80;99.90;;;;;;4967235;28;20668;-74
2023/07/06 06:56:09;;;;;;;16.07;11.47;;;16.00;99.90;;;;;;4980875;28;20049;-74
2023/07/06 06:58:36;;;;;;;17.02;12.00;;;16.10;99.90;;;;;;5005613;28;20038;-75
2023/07/06 07:01:07;;;;;;;15.07;11.60;;;16.20;99.90;;;;;;4967069;28;20097;-70
2023/07/06 07:03:34;;;;;;;16.85;11.32;;;16.20;99.90;;;;;;4979780;28;20049;-69
2023/07/06 07:06:11;;;;;;;17.20;12.02;;;16.30;99.90;;;;;;4979903;28;20082;-70
2023/07/06 07:08:39;;;;;;;15.25;11.25;;;16.50;99.90;;;;;;4981405;28;20124;-69
2023/07/06 07:11:06;;;;;;;17.40;11.98;;;16.60;99.90;;;;;;4980011;28;20042;-69
2023/07/06 07:13:33;;;;;;;16.52;10.63;;;16.80;99.90;;;;;;4981534;28;20046;-69
2023/07/06 07:15:59;;;;;;;21.27;12.82;;;16.90;99.90;;;;;;4960927;28;20053;-69
2023/07/06 07:18:25;;;;;;;20.33;14.57;;;17.00;99.90;;;;;;4966387;28;20673;-69
2023/07/06 07:20:51;;;;;;;16.60;11.10;;;17.10;99.90;;;;;;4994042;28;20092;-72
2023/07/06 07:23:24;;;;;;;14.35;9.43;;;17.30;99.90;;;;;;4980771;28;20041;-69
2023/07/06 07:25:50;;;;;;;14.57;9.55;;;17.40;99.90;;;;;;4967211;28;20584;-69
2023/07/06 07:28:17;;;;;;;15.60;10.38;;;17.50;99.90;;;;;;4980416;28;20084;-69
2023/07/06 07:30:56;;;;;;;16.25;10.10;;;17.60;99.90;;;;;;4998954;28;20034;-69
2023/07/06 07:33:26;;;;;;;19.05;9.73;;;17.70;99.90;;;;;;4983704;28;20043;-69
2023/07/06 07:35:52;;;;;;;15.55;10.98;;;17.80;99.90;;;;;;4965318;28;20141;-69
2023/07/06 07:38:19;;;;;;;13.82;9.63;;;17.90;99.90;;;;;;4988469;28;20134;-69
2023/07/06 07:41:03;;;;;;;15.98;9.13;;;18.00;99.90;;;;;;4980230;28;20105;-72
2023/07/06 07:43:32;;;;;;;14.27;8.40;;;18.00;99.90;;;;;;4967697;28;20046;-75
2023/07/06 07:46:03;;;;;;;15.35;8.98;;;18.20;99.90;;;;;;4980501;28;20038;-75
2023/07/06 07:48:33;;;;;;;16.27;9.73;;;18.20;99.90;;;;;;4966055;28;20050;-75
2023/07/06 07:51:01;;;;;;;17.30;9.63;;;18.30;99.90;;;;;;4967676;28;20038;-75
2023/07/06 07:53:31;;;;;;;12.55;10.00;;;18.30;99.90;;;;;;4983367;28;20047;-75
2023/07/06 07:55:56;;;;;;;14.70;9.35;;;18.20;99.90;;;;;;4967836;28;20129;-74
2023/07/06 07:58:23;;;;;;;15.18;8.95;;;18.20;99.90;;;;;;4983193;28;20534;-76
2023/07/06 08:00:51;;;;;;;16.65;8.85;;;18.10;99.90;;;;;;4968798;28;20046;-74
2023/07/06 08:03:17;;;;;;;24.35;8.85;;;18.20;99.90;;;;;;4982134;28;20181;-74
2023/07/06 08:05:43;;;;;;;17.45;8.85;;;18.20;99.90;;;;;;4983945;28;20046;-74
2023/07/06 08:08:13;;;;;;;13.10;8.52;;;18.20;99.90;;;;;;4967480;28;20810;-74
2023/07/06 08:10:40;;;;;;;13.80;8.85;;;18.30;99.90;;;;;;5000155;28;20034;-75
2023/07/06 08:13:09;;;;;;;12.77;8.05;;;18.40;99.90;;;;;;4982586;28;20501;-74
2023/07/06 08:15:39;;;;;;;11.70;8.60;;;18.40;99.90;;;;;;4980815;28;20520;-77
2023/07/06 08:18:06;;;;;;;;;;;18.50;99.90;;;;;;4984824;28;20042;-78
2023/07/06 08:20:33;;;;;;;12.88;6.25;;;18.60;99.90;;;;;;4981835;28;19926;-75
2023/07/06 08:23:06;;;;;;;9.85;5.05;;;18.60;99.90;;;;;;4983333;28;20109;-75
2023/07/06 08:25:41;;;;;;;10.00;5.78;;;18.50;99.90;;;;;;4997404;28;20061;-76
2023/07/06 08:28:09;;;;;;;10.80;5.10;;;18.60;99.90;;;;;;4978904;28;20077;-76
2023/07/06 08:30:36;;;;;;;12.88;6.10;;;18.80;99.90;;;;;;4981242;28;20050;-75
2023/07/06 08:33:02;;;;;;;11.23;5.70;;;19.00;99.90;;;;;;4966810;28;20050;-74
2023/07/06 08:35:30;;;;;;;9.85;6.25;;;19.20;99.90;;;;;;4967429;28;20092;-75
2023/07/06 08:37:57;;;;;;;10.32;6.03;;;19.40;99.90;;;;;;4985374;28;20042;-75
2023/07/06 08:40:28;;;;;;;8.77;5.57;;;19.60;99.90;;;;;;4973126;28;20528;-75
2023/07/06 08:42:57;;;;;;;8.23;4.80;;;19.80;99.90;;;;;;4979359;28;20054;-70
2023/07/06 08:45:52;;;;;;;10.70;4.30;;;19.90;99.90;;;;;;4984795;28;20047;-70
2023/07/06 08:48:25;;;;;;;10.27;4.50;;;20.00;99.90;;;;;;4941973;28;20069;-70
2023/07/06 08:51:15;;;;;;;11.73;4.32;;;20.30;99.90;;;;;;4968087;28;20134;-70
2023/07/06 08:53:50;;;;;;;10.05;4.32;;;20.50;99.90;;;;;;4989796;28;20042;-71
2023/07/06 08:56:18;;;;;;;6.63;4.03;;;20.60;99.90;;;;;;4984276;28;20053;-71
2023/07/06 08:58:44;;;;;;;7.20;3.42;;;20.60;99.90;;;;;;4982373;28;20721;-71
2023/07/06 09:01:14;;;;;;;10.63;3.80;;;20.40;99.90;;;;;;4968552;28;20074;-73
2023/07/06 09:03:55;;;;;;;8.32;3.50;;;20.20;99.90;;;;;;4980747;28;20121;-73
2023/07/06 09:06:26;;;;;;;8.35;3.35;;;19.90;99.90;;;;;;4982249;28;20450;-72
2023/07/06 09:09:04;;;;;;;9.23;3.55;;;19.70;99.90;;;;;;4965317;28;20163;-72
2023/07/06 09:11:33;;;;;;;6.50;3.33;;;19.50;99.90;;;;;;4966746;28;20057;-73
2023/07/06 09:14:05;;;;;;;9.95;3.45;;;19.40;99.90;;;;;;4963438;28;20065;-72
2023/07/06 09:16:47;;;;;;;11.95;9.43;;;19.20;99.90;;;;;;4984715;28;20038;-72
2023/07/06 09:19:16;;;;;;;31.05;25.15;;;19.20;99.90;;;;;;4966915;28;21002;-72
2023/07/06 09:21:47;;;;;;;9.82;5.28;;;19.30;99.90;;;;;;4984166;28;20034;-72
2023/07/06 09:24:13;;;;;;;6.57;2.47;;;19.30;99.90;;;;;;4966441;28;20108;-72
2023/07/06 09:26:42;;;;;;;4.10;1.92;;;19.30;99.90;;;;;;4968425;28;20047;-75
2023/07/06 09:29:19;;;;;;;7.57;2.33;;;19.30;99.90;;;;;;4980874;28;20528;-75
2023/07/06 09:31:47;;;;;;;5.88;2.83;;;19.40;99.90;;;;;;4966368;28;20405;-75
2023/07/06 09:34:33;;;;;;;4.63;2.22;;;19.70;99.90;;;;;;4982875;28;20054;-75
2023/07/06 09:36:59;;;;;;;5.93;2.80;;;19.90;99.90;;;;;;4981690;28;20064;-75
2023/07/06 09:39:26;;;;;;;6.32;2.60;;;20.10;99.90;;;;;;4983014;28;20290;-75
2023/07/06 09:41:53;;;;;;;6.15;2.33;;;20.30;99.90;;;;;;4967092;28;20357;-74
2023/07/06 09:44:29;;;;;;;3.92;2.00;;;20.20;99.90;;;;;;4982666;28;20141;-75
2023/07/06 09:46:59;;;;;;;5.53;2.25;;;20.10;99.90;;;;;;4966362;28;20057;-76
2023/07/06 09:49:38;;;;;;;6.50;2.38;;;19.90;99.90;;;;;;4999860;28;20050;-75
2023/07/06 09:52:13;;;;;;;4.90;2.22;;;19.70;99.90;;;;;;4983975;28;20137;-76
2023/07/06 09:54:39;;;;;;;9.05;2.83;;;19.60;99.90;;;;;;4981424;28;20057;-76
2023/07/06 09:57:15;;;;;;;6.78;2.20;;;19.50;99.90;;;;;;5000753;28;20050;-76
2023/07/06 09:59:52;;;;;;;5.95;2.17;;;19.50;99.90;;;;;;4980397;28;20100;-76
2023/07/06 10:02:28;;;;;;;5.20;1.88;;;19.60;99.90;;;;;;4997048;28;20058;-79
2023/07/06 10:05:36;;;;;;;5.65;2.40;;;20.00;99.90;;;;;;4979739;28;20370;-75
2023/07/06 10:08:27;;;;;;;6.93;2.42;;;20.40;99.90;;;;;;4960871;28;20074;-75
2023/07/06 10:11:30;;;;;;;7.60;2.63;;;20.90;99.90;;;;;;4973777;28;20051;-75
2023/07/06 10:14:20;;;;;;;6.22;2.50;;;21.20;99.90;;;;;;4955034;28;20050;-76
2023/07/06 10:16:54;;;;;;;4.57;2.30;;;21.40;99.90;;;;;;4962340;28;20105;-76
2023/07/06 10:19:38;;;;;;;5.45;2.28;;;21.40;99.90;;;;;;4967700;28;20049;-75
2023/07/06 10:22:04;;;;;;;5.78;2.28;;;21.40;99.90;;;;;;4949855;28;20589;-76
2023/07/06 10:24:54;;;;;;;6.93;2.33;;;21.50;99.90;;;;;;4972358;28;20108;-76
2023/07/06 10:27:26;;;;;;;5.68;2.90;;;21.60;99.90;;;;;;4966437;28;20125;-76
2023/07/06 10:29:57;;;;;;;4.43;1.73;;;21.80;99.90;;;;;;4943941;28;20047;-76
2023/07/06 10:32:39;;;;;;;4.70;2.13;;;21.90;99.90;;;;;;4985871;28;20051;-71
2023/07/06 10:35:19;;;;;;;6.22;2.47;;;22.10;99.40;;;;;;4946277;28;20105;-71
2023/07/06 10:37:46;;;;;;;5.28;2.22;;;22.20;99.90;;;;;;4960868;28;20548;-71
2023/07/06 10:40:20;;;;;;;5.97;2.15;;;22.40;99.90;;;;;;4952552;28;20047;-71
2023/07/06 10:42:52;;;;;;;5.57;1.70;;;22.40;97.90;;;;;;4966477;28;20509;-71
2023/07/06 10:45:50;;;;;;;6.00;2.33;;;22.20;98.70;;;;;;4949151;28;20043;-71
2023/07/06 10:48:30;;;;;;;4.70;2.08;;;22.30;99.90;;;;;;4943285;28;20494;-76
2023/07/06 10:51:25;;;;;;;3.45;1.50;;;22.50;98.70;;;;;;4964051;28;20529;-71
2023/07/06 10:54:16;;;;;;;5.72;3.30;;;22.60;95.30;;;;;;4957569;28;20534;-71
2023/07/06 10:56:47;;;;;;;3.05;1.20;;;22.70;93.90;;;;;;4955983;28;20050;-70
2023/07/06 11:43:04;;;;;;;5.00;1.58;;;23.80;90.90;;;;;;5037596;27;4425680;-82
2023/07/06 11:46:19;;;;;;;5.95;1.77;;;23.70;90.70;;;;;;5152204;27;20080;-86
2023/07/06 11:49:11;;;;;;;3.03;1.20;;;23.50;90.90;;;;;;5087692;28;20056;-75
2023/07/06 11:51:37;;;;;;;3.63;1.27;;;23.40;90.00;;;;;;5089715;28;20091;-75
2023/07/06 11:54:07;;;;;;;4.10;1.80;;;23.30;88.20;;;;;;5073025;28;20056;-62
2023/07/06 11:56:39;;;;;;;;;;;23.30;91.00;;;;;;5073767;28;20149;-80
2023/07/06 11:59:25;;;;;;;6.53;1.48;;;23.30;92.50;;;;;;5090167;28;19920;-87
2023/07/06 12:01:59;;;;;;;89.60;14.88;;;23.30;90.30;;;;;;5089703;28;20047;-89
2023/07/06 12:04:26;;;;;;;9.88;1.90;;;23.30;91.00;;;;;;5072969;28;20501;-76
2023/07/06 12:07:03;;;;;;;12.15;1.83;;;23.40;90.20;;;;;;5090647;28;20453;-91
2023/07/06 12:09:30;;;;;;;6.10;1.60;;;23.50;90.50;;;;;;5059909;28;20501;-57
2023/07/06 12:12:07;;;;;;;11.73;2.30;;;23.50;91.70;;;;;;5088555;28;20078;-73
2023/07/06 12:14:36;;;;;;;17.65;3.15;;;23.50;92.80;;;;;;5088154;28;20044;-66
2023/07/06 12:17:05;;;;;;;5.78;1.73;;;23.60;93.70;;;;;;5088183;28;20052;-70
2023/07/06 12:19:31;;;;;;;13.25;2.03;;;23.80;92.80;;;;;;5088189;28;20513;-69
2023/07/06 12:21:58;;;;;;;4.78;1.52;;;23.70;92.60;;;;;;5087952;28;20048;-68
2023/07/06 12:24:27;;;;;;;13.02;6.60;;;23.60;92.50;;;;;;5088887;28;20044;-74
2023/07/06 12:26:59;;;;;;;24.85;4.97;;;23.60;92.50;;;;;;5170406;27;20388;-67
2023/07/06 12:29:29;;;;;;;7.20;2.22;;;23.70;91.10;;;;;;5172061;27;20046;-65
2023/07/06 12:32:09;;;;;;;4.85;1.80;;;23.70;88.10;;;;;;5172953;27;20050;-85
2023/07/06 12:34:40;;;;;;;98.65;13.93;;;23.60;90.30;;;;;;5173691;27;20539;-72
2023/07/06 12:37:14;;;;;;;14.48;2.75;;;23.60;90.20;;;;;;5174609;27;20102;-73
2023/07/06 12:39:43;;;;;;;12.32;2.22;;;23.70;91.30;;;;;;5153319;27;20038;-60
2023/07/06 12:42:16;;;;;;;5.60;1.90;;;23.90;91.20;;;;;;5174611;27;20523;-94
2023/07/06 12:44:44;;;;;;;209.02;17.90;;;24.10;86.90;;;;;;5173537;27;20393;-82
2023/07/06 12:47:43;;;;;;;55.83;12.43;;;24.10;87.80;;;;;;5172849;27;20074;-60
2023/07/06 12:50:25;;;;;;;6.30;2.15;;;24.10;85.50;;;;;;5157287;27;20046;-92
2023/07/06 12:53:05;;;;;;;5.25;2.15;;;24.00;84.30;;;;;;5129505;27;20043;-61
2023/07/06 12:55:34;;;;;;;5.93;1.90;;;23.90;84.60;;;;;;5120233;22;20072;-84
2023/07/06 12:58:32;;;;;;;4.83;2.37;;;23.90;87.30;;;;;;5042373;28;20188;-87
2023/07/06 13:01:07;;;;;;;6.90;3.47;;;24.00;89.20;;;;;;5055776;28;21309;-86
2023/07/06 13:03:56;;;;;;;8.20;2.60;;;24.10;87.20;;;;;;5050803;28;20040;-86
2023/07/06 13:06:25;;;;;;;5.70;2.63;;;24.10;90.60;;;;;;5050754;28;20059;-88
2023/07/06 13:08:56;;;;;;;7.55;2.40;;;24.10;90.60;;;;;;5038905;28;20099;-83
2023/07/06 13:11:22;;;;;;;11.10;2.55;;;24.00;90.30;;;;;;5061199;28;20487;-84
2023/07/06 13:13:50;;;;;;;5.70;2.20;;;23.80;89.30;;;;;;5044780;28;20124;-85
2023/07/06 13:16:18;;;;;;;4.38;1.95;;;23.60;87.90;;;;;;5048835;28;20060;-81
2023/07/06 13:18:46;;;;;;;5.13;2.00;;;23.40;89.40;;;;;;5046520;28;20494;-82
2023/07/06 13:21:23;;;;;;;6.22;2.10;;;23.30;88.40;;;;;;5056909;28;20041;-78
2023/07/06 13:23:53;;;;;;;4.78;2.15;;;23.20;90.40;;;;;;5051941;28;20047;-75
2023/07/06 13:26:19;;;;;;;6.10;2.22;;;23.20;91.00;;;;;;5047788;28;20127;-73
2023/07/06 13:28:45;;;;;;;7.18;2.35;;;23.30;91.00;;;;;;5043832;28;20489;-75
2023/07/06 13:31:14;;;;;;;20.35;3.72;;;23.30;91.30;;;;;;5046908;28;20036;-76
2023/07/06 13:33:40;;;;;;;8.37;2.60;;;23.50;91.60;;;;;;5042350;28;20041;-76
2023/07/06 13:36:13;;;;;;;5.70;2.42;;;23.60;91.80;;;;;;5056715;28;20045;-75
2023/07/06 13:38:39;;;;;;;6.40;1.98;;;23.70;91.30;;;;;;5053104;28;20502;-72
2023/07/06 13:41:06;;;;;;;5.38;2.30;;;23.70;89.20;;;;;;5058794;28;20083;-71